Time;durP1;ratioP1;P1;durP2;ratioP2;P2;SDS_P1;SDS_P2;PMS_P1;PMS_P2;Temp;Humidity;BMP_temperature;BMP_pressure;BME280_temperature;BME280_humidity;BME280_pressure;Samples;Min_cycle;Max_cycle;Signal;HPM_P1;HPM_P2
2020/12/12 00:02:15;;;;;;;1.70;0.20;;;5.80;99.90;;;;;;5051625;28;20714;-57
2020/12/12 00:04:41;;;;;;;1.70;0.20;;;5.80;99.90;;;;;;5052113;28;20537;-62
2020/12/12 00:07:07;;;;;;;1.70;0.20;;;5.80;99.90;;;;;;5044503;28;20471;-58
2020/12/12 00:09:33;;;;;;;1.70;0.20;;;5.80;99.90;;;;;;5050517;28;20448;-58
2020/12/12 00:11:58;;;;;;;1.70;0.20;;;5.70;99.90;;;;;;5052402;28;20448;-57
2020/12/12 00:14:24;;;;;;;1.70;0.20;;;5.70;99.90;;;;;;5049942;28;20624;-58
2020/12/12 00:16:54;;;;;;;1.70;0.20;;;5.70;99.90;;;;;;5050385;28;20235;-57
2020/12/12 00:19:19;;;;;;;1.70;0.20;;;5.70;99.90;;;;;;5052899;28;20434;-59
2020/12/12 00:21:52;;;;;;;1.70;0.20;;;5.70;99.90;;;;;;5049276;28;20506;-57
2020/12/12 00:24:18;;;;;;;1.70;0.20;;;5.70;99.90;;;;;;5052490;28;20189;-57
2020/12/12 00:26:44;;;;;;;1.70;0.20;;;5.70;99.90;;;;;;5066893;28;20546;-59
2020/12/12 00:29:12;;;;;;;1.70;0.20;;;5.80;99.90;;;;;;5061008;28;20452;-58
2020/12/12 00:31:39;;;;;;;1.70;0.20;;;5.80;99.90;;;;;;5064897;28;20437;-60
2020/12/12 00:34:05;;;;;;;1.70;0.20;;;5.70;99.90;;;;;;5062984;28;20479;-58
2020/12/12 00:36:31;;;;;;;1.70;0.20;;;5.70;99.90;;;;;;5060389;28;20456;-58
2020/12/12 00:38:56;;;;;;;1.70;0.20;;;5.70;99.90;;;;;;5058854;28;20508;-57
2020/12/12 00:41:22;;;;;;;1.70;0.20;;;5.70;99.90;;;;;;5067008;28;20185;-59
2020/12/12 00:43:49;;;;;;;1.80;0.30;;;5.70;99.90;;;;;;5064932;28;20197;-57
2020/12/12 00:46:15;;;;;;;1.70;0.20;;;5.70;99.90;;;;;;5068215;28;20189;-58
2020/12/12 00:48:40;;;;;;;1.70;0.20;;;5.70;99.90;;;;;;5054367;28;20211;-58
2020/12/12 00:51:06;;;;;;;1.70;0.20;;;5.80;99.90;;;;;;5059907;28;20281;-58
2020/12/12 00:53:31;;;;;;;1.70;0.20;;;5.70;99.90;;;;;;5061649;28;20209;-60
2020/12/12 00:55:57;;;;;;;1.70;0.20;;;5.80;99.90;;;;;;5069108;28;20199;-65
2020/12/12 00:58:22;;;;;;;1.70;0.20;;;5.80;99.90;;;;;;5065618;28;20196;-58
2020/12/12 01:00:48;;;;;;;1.70;0.20;;;5.70;99.90;;;;;;5061248;28;20256;-58
2020/12/12 01:03:13;;;;;;;1.70;0.20;;;5.70;99.90;;;;;;5049448;28;20189;-58
2020/12/12 01:05:39;;;;;;;1.70;0.20;;;5.70;99.90;;;;;;5055077;28;20191;-62
2020/12/12 01:08:04;;;;;;;1.70;0.20;;;5.70;99.90;;;;;;5063974;28;20220;-58
2020/12/12 01:10:30;;;;;;;1.70;0.20;;;5.70;99.90;;;;;;5053491;28;20190;-58
2020/12/12 01:12:56;;;;;;;1.70;0.20;;;5.70;99.90;;;;;;5052014;28;20204;-57
2020/12/12 01:15:22;;;;;;;1.70;0.20;;;5.70;99.90;;;;;;5050998;28;20190;-58
2020/12/12 01:17:47;;;;;;;3.03;1.03;;;5.70;99.90;;;;;;5050697;28;20855;-58
2020/12/12 01:20:13;;;;;;;2.47;1.23;;;5.70;99.90;;;;;;5053399;28;20467;-58
2020/12/12 01:22:39;;;;;;;2.10;0.40;;;5.70;99.90;;;;;;5061975;28;20198;-58
2020/12/12 01:25:05;;;;;;;1.70;0.20;;;5.70;99.90;;;;;;5066516;28;20181;-58
2020/12/12 01:27:30;;;;;;;1.80;0.20;;;5.70;99.90;;;;;;5066579;28;20295;-59
2020/12/12 01:29:56;;;;;;;2.30;1.63;;;5.60;99.90;;;;;;5068181;28;20455;-57
2020/12/12 01:32:21;;;;;;;1.90;0.40;;;5.70;99.90;;;;;;5067049;28;20186;-57
2020/12/12 01:34:47;;;;;;;1.70;0.20;;;5.70;99.90;;;;;;5072662;28;20234;-57
2020/12/12 01:37:13;;;;;;;2.07;0.87;;;5.70;99.90;;;;;;5073086;28;20208;-58
2020/12/12 01:39:38;;;;;;;1.70;0.20;;;5.70;99.90;;;;;;5067926;28;20289;-58
2020/12/12 01:42:04;;;;;;;2.73;0.90;;;5.70;99.90;;;;;;5068343;28;20196;-58
2020/12/12 01:44:30;;;;;;;1.70;0.20;;;5.70;99.90;;;;;;5055904;28;20219;-57
2020/12/12 01:46:57;;;;;;;1.70;0.20;;;5.70;99.90;;;;;;5055376;28;20205;-57
2020/12/12 01:49:23;;;;;;;1.70;0.20;;;5.70;99.90;;;;;;5053172;28;20268;-57
2020/12/12 01:51:48;;;;;;;2.10;0.97;;;5.80;99.90;;;;;;5053696;28;20471;-58
2020/12/12 01:54:15;;;;;;;1.70;0.20;;;5.70;99.90;;;;;;5054537;28;20264;-57
2020/12/12 01:56:41;;;;;;;1.80;0.30;;;5.80;99.90;;;;;;5054613;28;20201;-57
2020/12/12 01:59:06;;;;;;;1.70;0.20;;;5.90;99.90;;;;;;5054171;28;20812;-57
2020/12/12 02:01:37;;;;;;;1.80;0.20;;;5.90;99.90;;;;;;5053260;28;20492;-57
2020/12/12 02:04:05;;;;;;;1.70;0.20;;;5.90;99.90;;;;;;5055572;28;20197;-58
2020/12/12 02:06:30;;;;;;;1.70;0.20;;;5.90;99.90;;;;;;5052592;28;20469;-57
2020/12/12 02:08:57;;;;;;;1.70;0.20;;;6.00;99.90;;;;;;5054407;28;20994;-58
2020/12/12 02:11:22;;;;;;;1.70;0.20;;;6.00;99.90;;;;;;5051297;28;20239;-58
2020/12/12 02:13:48;;;;;;;1.70;0.20;;;6.00;99.90;;;;;;5052550;28;20982;-57
2020/12/12 02:16:16;;;;;;;1.70;0.30;;;6.00;99.90;;;;;;5054046;28;20268;-57
2020/12/12 02:18:41;;;;;;;1.70;0.20;;;5.90;99.90;;;;;;5044991;28;20452;-57
2020/12/12 02:21:07;;;;;;;1.70;0.20;;;5.90;99.90;;;;;;5049671;28;20530;-57
2020/12/12 02:23:32;;;;;;;1.70;0.20;;;5.90;99.90;;;;;;5053985;28;20199;-57
2020/12/12 02:25:58;;;;;;;1.70;0.20;;;5.90;99.90;;;;;;5049296;28;20293;-57
2020/12/12 02:28:39;;;;;;;1.70;0.20;;;6.00;99.90;;;;;;5053369;28;20200;-58
2020/12/12 02:31:04;;;;;;;1.70;0.20;;;5.90;99.90;;;;;;5053971;28;20212;-57
2020/12/12 02:33:30;;;;;;;1.70;0.20;;;6.00;99.90;;;;;;5049258;28;20471;-57
2020/12/12 02:35:57;;;;;;;1.70;0.20;;;5.90;99.90;;;;;;5053233;28;20178;-57
2020/12/12 02:38:23;;;;;;;1.70;0.20;;;5.90;99.90;;;;;;5049490;28;20676;-57
2020/12/12 02:40:49;;;;;;;1.70;0.20;;;5.90;99.90;;;;;;5051458;28;20455;-57
2020/12/12 02:43:15;;;;;;;1.70;0.20;;;6.00;99.90;;;;;;5052818;28;20431;-57
2020/12/12 02:45:44;;;;;;;1.70;0.20;;;6.00;99.90;;;;;;5050425;28;20489;-57
2020/12/12 02:48:10;;;;;;;1.70;0.20;;;6.00;99.90;;;;;;5050926;28;20205;-57
2020/12/12 02:50:35;;;;;;;1.70;0.20;;;6.00;99.90;;;;;;5052579;28;21210;-57
2020/12/12 02:53:02;;;;;;;1.70;0.20;;;6.00;99.90;;;;;;5047215;28;20174;-58
2020/12/12 02:55:27;;;;;;;1.73;0.20;;;6.00;99.90;;;;;;5047807;28;20215;-57
2020/12/12 02:57:53;;;;;;;1.70;0.20;;;6.00;99.90;;;;;;5044827;28;20958;-57
2020/12/12 03:00:21;;;;;;;1.70;0.20;;;6.00;99.90;;;;;;5050820;28;20660;-57
2020/12/12 03:02:47;;;;;;;1.70;0.20;;;6.00;99.90;;;;;;5049832;28;20190;-57
2020/12/12 03:05:12;;;;;;;1.70;0.20;;;6.00;99.90;;;;;;5052588;28;20791;-57
2020/12/12 03:07:38;;;;;;;1.70;0.20;;;6.00;99.90;;;;;;5050742;28;20213;-57
2020/12/12 03:10:06;;;;;;;1.70;0.20;;;6.10;99.90;;;;;;5051070;28;20197;-57
2020/12/12 03:12:36;;;;;;;1.70;0.20;;;6.10;99.90;;;;;;5050838;28;20235;-57
2020/12/12 03:15:07;;;;;;;1.70;0.20;;;6.10;99.90;;;;;;5045019;28;20555;-58
2020/12/12 03:17:33;;;;;;;1.70;0.20;;;6.10;99.90;;;;;;5052176;28;20469;-57
2020/12/12 03:19:58;;;;;;;1.70;0.20;;;6.10;99.90;;;;;;5045196;28;20506;-57
2020/12/12 03:22:24;;;;;;;1.70;0.20;;;6.10;99.90;;;;;;5050998;28;20192;-58
2020/12/12 03:24:49;;;;;;;1.70;0.20;;;6.10;99.90;;;;;;5049291;28;20247;-57
2020/12/12 03:27:15;;;;;;;1.70;0.20;;;6.10;99.90;;;;;;5049268;28;20747;-57
2020/12/12 03:29:41;;;;;;;1.73;0.20;;;6.10;99.90;;;;;;5047847;28;20182;-57
2020/12/12 03:32:10;;;;;;;1.70;0.20;;;6.20;99.90;;;;;;5048858;28;20227;-58
2020/12/12 03:34:37;;;;;;;1.70;0.20;;;6.10;99.90;;;;;;5050449;28;20215;-57
2020/12/12 03:37:04;;;;;;;1.70;0.20;;;6.10;99.90;;;;;;5048738;28;20460;-58
2020/12/12 03:39:30;;;;;;;1.70;0.20;;;6.20;99.90;;;;;;5051781;28;20475;-57
2020/12/12 03:41:55;;;;;;;1.70;0.20;;;6.20;99.90;;;;;;5064367;23;20483;-66
2020/12/12 03:44:21;;;;;;;1.70;0.20;;;6.20;99.90;;;;;;5069019;28;20197;-65
2020/12/12 03:46:46;;;;;;;1.77;0.20;;;6.20;99.90;;;;;;5067304;28;20196;-65
2020/12/12 03:49:12;;;;;;;1.77;0.20;;;6.20;99.90;;;;;;5065989;28;20186;-65
2020/12/12 03:51:37;;;;;;;1.70;0.20;;;6.10;99.90;;;;;;5063942;28;20205;-66
2020/12/12 03:54:03;;;;;;;1.70;0.20;;;6.10;99.90;;;;;;5072563;28;20220;-67
2020/12/12 03:56:29;;;;;;;1.70;0.20;;;6.10;99.90;;;;;;5069478;28;20193;-65
2020/12/12 03:58:54;;;;;;;1.80;0.43;;;6.10;99.90;;;;;;5072343;28;20454;-65
2020/12/12 04:01:20;;;;;;;1.70;0.20;;;6.20;99.90;;;;;;5069302;28;20197;-65
2020/12/12 04:03:45;;;;;;;1.80;0.50;;;6.10;99.90;;;;;;5066119;28;20253;-65
2020/12/12 04:06:11;;;;;;;1.70;0.20;;;6.10;99.90;;;;;;5070923;28;20215;-65
2020/12/12 04:08:36;;;;;;;1.70;0.20;;;6.10;99.90;;;;;;5063197;28;20177;-65
2020/12/12 04:11:02;;;;;;;1.70;0.20;;;6.10;99.90;;;;;;5065757;28;20222;-65
2020/12/12 04:13:28;;;;;;;1.70;0.20;;;6.10;99.90;;;;;;5070361;28;20204;-65
2020/12/12 04:15:54;;;;;;;1.70;0.20;;;6.10;99.90;;;;;;5062854;28;20463;-65
2020/12/12 04:18:19;;;;;;;1.70;0.20;;;6.10;99.90;;;;;;5057831;28;20464;-65
2020/12/12 04:20:45;;;;;;;1.80;0.60;;;6.10;99.90;;;;;;5066532;28;20287;-65
2020/12/12 04:23:10;;;;;;;1.80;0.30;;;6.10;99.90;;;;;;5062077;28;20274;-65
2020/12/12 04:25:36;;;;;;;1.70;0.20;;;6.10;99.90;;;;;;5065117;28;20216;-65
2020/12/12 04:28:01;;;;;;;1.70;0.20;;;6.10;99.90;;;;;;5068268;28;20193;-65
2020/12/12 04:30:29;;;;;;;1.70;0.20;;;6.10;99.90;;;;;;5055517;28;20205;-64
2020/12/12 04:32:54;;;;;;;1.70;0.20;;;6.10;99.90;;;;;;5060535;28;20210;-64
2020/12/12 04:35:20;;;;;;;1.70;0.20;;;6.20;99.90;;;;;;5067441;28;20491;-65
2020/12/12 04:37:45;;;;;;;1.70;0.20;;;6.20;99.90;;;;;;5056355;28;20208;-65
2020/12/12 04:40:11;;;;;;;1.70;0.20;;;6.20;99.90;;;;;;5070178;28;20185;-64
2020/12/12 04:42:37;;;;;;;1.70;0.20;;;6.20;99.90;;;;;;5061513;28;20213;-65
2020/12/12 04:45:04;;;;;;;1.70;0.20;;;6.20;99.90;;;;;;5065841;28;20265;-65
2020/12/12 04:47:31;;;;;;;1.70;0.20;;;6.20;99.90;;;;;;5067646;28;20444;-65
2020/12/12 04:49:58;;;;;;;1.73;0.30;;;6.10;99.90;;;;;;5069050;28;20444;-65
2020/12/12 04:52:24;;;;;;;1.70;0.20;;;6.10;99.90;;;;;;5064887;28;20456;-65
2020/12/12 04:54:51;;;;;;;1.70;0.20;;;6.10;99.90;;;;;;5069633;28;20468;-66
2020/12/12 04:57:18;;;;;;;1.70;0.20;;;6.10;99.90;;;;;;5064108;28;20444;-71
2020/12/12 04:59:44;;;;;;;1.70;0.20;;;6.10;99.90;;;;;;5067494;28;20428;-65
2020/12/12 05:02:13;;;;;;;1.70;0.20;;;6.10;99.90;;;;;;5062907;28;21150;-65
2020/12/12 05:04:40;;;;;;;1.70;0.20;;;6.20;99.90;;;;;;5060424;28;20501;-65
2020/12/12 05:07:06;;;;;;;1.70;0.20;;;6.20;99.90;;;;;;5062388;28;20443;-65
2020/12/12 05:09:31;;;;;;;1.70;0.20;;;6.20;99.90;;;;;;5071893;28;20501;-65
2020/12/12 05:11:57;;;;;;;1.73;0.20;;;6.10;99.90;;;;;;5064002;28;20479;-65
2020/12/12 05:14:23;;;;;;;1.70;0.20;;;6.10;99.90;;;;;;5059158;28;20216;-65
2020/12/12 05:16:48;;;;;;;1.70;0.20;;;6.10;99.90;;;;;;5059913;28;20182;-65
2020/12/12 05:19:14;;;;;;;1.70;0.20;;;6.10;99.90;;;;;;5067000;28;20177;-65
2020/12/12 05:21:50;;;;;;;2.33;2.10;;;6.10;99.90;;;;;;5068542;28;20197;-64
2020/12/12 05:24:17;;;;;;;1.70;0.20;;;6.10;99.90;;;;;;5065951;28;20180;-65
2020/12/12 05:26:44;;;;;;;1.70;0.20;;;6.10;99.90;;;;;;5062521;28;20501;-65
2020/12/12 05:29:14;;;;;;;1.70;0.20;;;6.10;99.90;;;;;;5063824;28;20454;-65
2020/12/12 05:31:40;;;;;;;1.70;0.20;;;6.10;99.90;;;;;;5059437;28;20463;-65
2020/12/12 05:34:16;;;;;;;1.70;0.20;;;6.10;99.90;;;;;;5056972;28;20559;-66
2020/12/12 05:36:43;;;;;;;1.70;0.20;;;6.20;99.90;;;;;;5060221;28;20443;-65
2020/12/12 05:39:11;;;;;;;1.70;0.20;;;6.30;99.90;;;;;;5069750;28;20431;-65
2020/12/12 05:41:38;;;;;;;1.70;0.20;;;6.30;99.90;;;;;;5064659;28;20463;-65
2020/12/12 05:44:04;;;;;;;1.70;0.20;;;6.30;99.90;;;;;;5081476;28;20442;-68
2020/12/12 05:46:30;;;;;;;1.70;0.20;;;6.30;99.90;;;;;;5061737;28;20455;-65
2020/12/12 05:48:57;;;;;;;1.70;0.20;;;6.30;99.90;;;;;;5056105;28;20197;-65
2020/12/12 05:51:25;;;;;;;1.70;0.20;;;6.20;99.90;;;;;;5050421;28;20494;-65
2020/12/12 05:53:51;;;;;;;2.20;1.80;;;6.20;99.90;;;;;;5052163;28;20475;-64
2020/12/12 05:56:17;;;;;;;1.70;0.20;;;6.20;99.90;;;;;;5055136;28;20496;-65
2020/12/12 05:58:46;;;;;;;1.70;0.20;;;6.30;99.90;;;;;;5058413;28;20193;-65
2020/12/12 06:01:17;;;;;;;1.70;0.20;;;6.30;99.90;;;;;;5057933;28;20444;-65
2020/12/12 06:04:03;;;;;;;1.70;0.20;;;6.30;99.90;;;;;;5059216;28;20436;-65
2020/12/12 06:06:30;;;;;;;1.70;0.20;;;6.30;99.90;;;;;;5059323;28;20507;-64
2020/12/12 06:09:09;;;;;;;1.80;0.63;;;6.30;99.90;;;;;;5053134;28;20428;-65
2020/12/12 06:11:39;;;;;;;1.70;0.20;;;6.40;99.90;;;;;;5055602;28;20460;-65
2020/12/12 06:14:06;;;;;;;1.80;0.20;;;6.40;99.90;;;;;;5058525;28;20498;-66
2020/12/12 06:16:34;;;;;;;1.80;0.53;;;6.30;99.90;;;;;;5061148;28;20446;-65
2020/12/12 06:19:26;;;;;;;1.90;0.67;;;6.30;99.90;;;;;;5055743;28;20493;-65
2020/12/12 06:21:51;;;;;;;1.70;0.20;;;6.30;99.90;;;;;;5056552;28;20543;-65
2020/12/12 06:24:18;;;;;;;1.70;0.20;;;6.20;99.90;;;;;;5065886;28;20424;-65
2020/12/12 06:26:59;;;;;;;1.70;0.20;;;6.20;99.90;;;;;;5047030;28;20193;-64
2020/12/12 06:29:31;;;;;;;1.70;0.20;;;6.20;99.90;;;;;;5051141;28;20442;-64
2020/12/12 06:31:58;;;;;;;1.70;0.20;;;6.10;99.90;;;;;;5051787;28;20561;-65
2020/12/12 06:34:49;;;;;;;1.70;0.20;;;6.10;99.90;;;;;;5046090;28;20470;-65
2020/12/12 06:37:24;;;;;;;1.70;0.20;;;6.20;99.90;;;;;;5048612;28;20432;-65
2020/12/12 06:39:50;;;;;;;1.80;0.20;;;6.20;99.90;;;;;;5048631;28;20420;-64
2020/12/12 06:42:34;;;;;;;1.70;0.20;;;6.20;99.90;;;;;;5044079;28;20851;-64
2020/12/12 06:45:02;;;;;;;1.70;0.20;;;6.10;99.90;;;;;;5049065;28;20193;-65
2020/12/12 06:47:42;;;;;;;1.70;0.20;;;6.20;99.90;;;;;;5048837;28;20439;-64
2020/12/12 06:50:15;;;;;;;1.70;0.20;;;6.20;99.90;;;;;;5051307;28;21009;-65
2020/12/12 06:52:42;;;;;;;1.70;0.20;;;6.20;99.90;;;;;;5048326;28;20477;-65
2020/12/12 06:55:10;;;;;;;1.70;0.20;;;6.20;99.90;;;;;;5049055;28;20983;-65
2020/12/12 06:57:41;;;;;;;1.70;0.20;;;6.20;99.90;;;;;;5050696;28;20510;-64
2020/12/12 07:00:18;;;;;;;1.70;0.20;;;6.20;99.90;;;;;;5048365;28;20493;-65
2020/12/12 07:02:54;;;;;;;2.00;0.90;;;6.20;99.90;;;;;;5050042;28;20947;-65
2020/12/12 07:05:21;;;;;;;1.70;0.20;;;6.10;99.90;;;;;;5043893;28;20937;-64
2020/12/12 07:07:46;;;;;;;1.70;0.20;;;6.10;99.90;;;;;;5046209;28;20508;-64
2020/12/12 07:10:12;;;;;;;1.90;0.80;;;6.10;99.90;;;;;;5040183;28;20541;-64
2020/12/12 07:12:38;;;;;;;2.23;1.57;;;6.20;99.90;;;;;;5047042;28;20208;-63
2020/12/12 07:15:04;;;;;;;1.70;0.20;;;6.20;99.90;;;;;;5048102;28;20220;-63
2020/12/12 07:17:32;;;;;;;1.73;0.20;;;6.30;99.90;;;;;;5046784;28;20424;-63
2020/12/12 07:19:57;;;;;;;1.70;0.20;;;6.30;99.90;;;;;;5050403;28;20436;-70
2020/12/12 07:22:23;;;;;;;1.70;0.20;;;6.40;99.90;;;;;;5048273;28;20456;-63
2020/12/12 07:24:49;;;;;;;2.10;0.93;;;6.40;99.90;;;;;;5049702;28;20177;-63
2020/12/12 07:27:14;;;;;;;1.70;0.20;;;6.30;99.90;;;;;;5048602;28;20725;-66
2020/12/12 07:29:40;;;;;;;1.70;0.20;;;6.30;99.90;;;;;;5051226;28;20269;-66
2020/12/12 07:32:05;;;;;;;1.70;0.20;;;6.30;99.90;;;;;;5041476;28;20236;-66
2020/12/12 07:34:31;;;;;;;1.70;0.20;;;6.30;99.90;;;;;;5042400;28;20700;-63
2020/12/12 07:36:58;;;;;;;1.70;0.20;;;6.30;99.90;;;;;;5052223;28;20664;-67
2020/12/12 07:39:32;;;;;;;1.70;0.20;;;6.40;99.90;;;;;;5050933;28;20185;-65
2020/12/12 07:41:59;;;;;;;1.70;0.20;;;6.40;99.90;;;;;;5047895;28;21095;-66
2020/12/12 07:44:27;;;;;;;1.70;0.20;;;6.50;99.90;;;;;;5047442;28;20431;-63
2020/12/12 07:47:07;;;;;;;1.70;0.20;;;6.50;99.90;;;;;;5050022;28;20479;-65
2020/12/12 07:49:34;;;;;;;1.90;0.60;;;6.60;99.90;;;;;;5053929;28;20938;-64
2020/12/12 07:52:11;;;;;;;1.70;0.20;;;6.60;99.90;;;;;;5046094;28;20489;-64
2020/12/12 07:54:54;;;;;;;1.70;0.20;;;6.60;99.90;;;;;;5052309;28;20542;-67
2020/12/12 07:57:20;;;;;;;1.77;0.20;;;6.60;99.90;;;;;;5050034;28;20507;-63
2020/12/12 07:59:45;;;;;;;1.80;0.50;;;6.60;99.90;;;;;;5057591;28;20518;-63
2020/12/12 08:02:13;;;;;;;1.70;0.20;;;6.60;99.90;;;;;;5052498;28;20235;-63
2020/12/12 08:04:39;;;;;;;1.70;0.20;;;6.60;99.90;;;;;;5041014;28;20188;-63
2020/12/12 08:07:23;;;;;;;1.70;0.20;;;6.60;99.90;;;;;;5047059;28;20787;-64
2020/12/12 08:09:51;;;;;;;1.70;0.20;;;6.60;99.90;;;;;;5049699;28;20590;-64
2020/12/12 08:12:29;;;;;;;1.70;0.30;;;6.60;99.90;;;;;;5045267;28;20881;-64
2020/12/12 08:15:01;;;;;;;1.70;0.20;;;6.60;99.90;;;;;;5039054;28;20463;-64
2020/12/12 08:17:33;;;;;;;1.70;0.20;;;6.60;99.90;;;;;;5049032;28;20985;-64
2020/12/12 08:20:03;;;;;;;1.70;0.20;;;6.70;99.90;;;;;;5048973;28;20535;-64
2020/12/12 08:22:29;;;;;;;1.70;0.20;;;6.70;99.90;;;;;;5045925;28;20461;-64
2020/12/12 08:24:57;;;;;;;4.00;2.83;;;6.80;99.90;;;;;;5039338;28;20531;-64
2020/12/12 08:27:27;;;;;;;1.70;0.20;;;6.70;99.90;;;;;;5064418;28;20497;-63
2020/12/12 08:29:56;;;;;;;1.90;0.53;;;6.70;99.90;;;;;;5046846;28;20922;-63
2020/12/12 08:32:33;;;;;;;1.90;0.30;;;6.70;99.90;;;;;;5044772;28;20427;-64
2020/12/12 08:35:25;;;;;;;1.70;0.20;;;6.70;99.90;;;;;;5042688;28;20206;-64
2020/12/12 08:37:57;;;;;;;1.70;0.20;;;6.70;99.90;;;;;;5048624;28;20570;-64
2020/12/12 08:40:25;;;;;;;1.77;0.20;;;6.70;99.90;;;;;;5051902;28;20424;-64
2020/12/12 08:42:59;;;;;;;1.70;0.20;;;6.80;99.90;;;;;;5054832;28;20496;-64
2020/12/12 08:45:27;;;;;;;1.70;0.30;;;6.80;99.90;;;;;;5053819;28;20436;-64
2020/12/12 08:48:05;;;;;;;1.70;0.20;;;6.90;99.90;;;;;;5047464;28;20435;-64
2020/12/12 08:50:43;;;;;;;1.70;0.20;;;6.80;99.90;;;;;;5047018;28;20445;-64
2020/12/12 08:53:29;;;;;;;1.70;0.20;;;6.80;99.90;;;;;;5047320;28;20471;-63
2020/12/12 08:56:14;;;;;;;1.70;0.20;;;6.80;99.90;;;;;;5045735;28;20525;-64
2020/12/12 08:58:45;;;;;;;1.70;0.20;;;6.80;99.90;;;;;;5042076;28;20506;-62
2020/12/12 09:01:21;;;;;;;1.70;0.20;;;6.70;99.90;;;;;;5047586;28;20431;-63
2020/12/12 09:03:56;;;;;;;1.70;0.20;;;6.80;99.90;;;;;;5049011;28;20450;-63
2020/12/12 09:06:23;;;;;;;1.70;0.20;;;6.80;99.90;;;;;;5051266;28;20518;-62
2020/12/12 09:09:09;;;;;;;1.70;0.20;;;6.70;99.90;;;;;;5044939;28;20458;-63
2020/12/12 09:11:36;;;;;;;1.70;0.20;;;6.70;99.90;;;;;;5043206;28;20569;-63
2020/12/12 09:14:02;;;;;;;1.70;0.20;;;6.70;99.90;;;;;;5047329;28;20467;-63
2020/12/12 09:16:28;;;;;;;1.73;0.20;;;6.70;99.90;;;;;;5042244;28;20955;-63
2020/12/12 09:18:54;;;;;;;1.70;0.20;;;6.70;99.90;;;;;;5049569;28;20451;-63
2020/12/12 09:21:20;;;;;;;2.60;1.23;;;6.70;99.90;;;;;;5042170;28;20236;-63
2020/12/12 09:23:45;;;;;;;1.70;0.20;;;6.70;99.90;;;;;;5039488;28;20196;-64
2020/12/12 09:26:11;;;;;;;1.80;0.50;;;6.60;99.90;;;;;;5048354;28;20448;-64
2020/12/12 09:28:37;;;;;;;1.77;0.30;;;6.60;99.90;;;;;;5043178;28;20228;-63
2020/12/12 09:31:03;;;;;;;1.90;0.73;;;6.60;99.90;;;;;;5044589;28;20194;-64
2020/12/12 09:33:29;;;;;;;1.70;0.20;;;6.60;99.90;;;;;;5037273;28;20526;-64
2020/12/12 09:35:55;;;;;;;1.70;0.20;;;6.60;99.90;;;;;;5046969;28;20441;-64
2020/12/12 09:38:20;;;;;;;2.07;1.13;;;6.60;99.90;;;;;;5046815;28;20446;-64
2020/12/12 09:40:49;;;;;;;12.00;1.53;;;6.60;99.90;;;;;;5038580;28;20696;-64
2020/12/12 09:43:18;;;;;;;1.70;0.20;;;6.60;99.90;;;;;;5043261;28;20292;-64
2020/12/12 09:45:44;;;;;;;1.70;0.20;;;6.60;99.90;;;;;;5040090;28;20432;-64
2020/12/12 09:48:11;;;;;;;1.70;0.20;;;6.60;99.90;;;;;;5049036;28;20441;-65
2020/12/12 09:50:37;;;;;;;1.70;0.20;;;6.70;99.90;;;;;;5041692;28;20951;-64
2020/12/12 09:53:07;;;;;;;1.73;0.20;;;6.70;99.90;;;;;;5047415;28;20460;-64
2020/12/12 09:55:34;;;;;;;1.70;0.20;;;6.80;99.90;;;;;;5040330;28;20205;-64
2020/12/12 09:58:00;;;;;;;1.70;0.20;;;6.80;99.90;;;;;;5048779;28;20534;-64
2020/12/12 10:00:26;;;;;;;1.70;0.20;;;6.90;99.90;;;;;;5047599;28;20461;-64
2020/12/12 10:02:52;;;;;;;1.70;0.20;;;6.90;99.90;;;;;;5046506;28;20459;-63
2020/12/12 10:05:18;;;;;;;4.63;2.00;;;7.00;99.90;;;;;;5046690;28;20269;-63
2020/12/12 10:07:43;;;;;;;1.70;0.20;;;7.10;99.90;;;;;;5048765;28;20555;-63
2020/12/12 10:10:09;;;;;;;1.93;0.60;;;7.10;99.90;;;;;;5047173;28;20215;-64
2020/12/12 10:12:34;;;;;;;1.70;0.20;;;7.10;99.90;;;;;;5046824;28;20214;-64
2020/12/12 10:15:00;;;;;;;1.70;0.20;;;7.10;99.90;;;;;;5040726;28;20254;-64
2020/12/12 10:17:25;;;;;;;1.70;0.20;;;7.10;99.90;;;;;;5048320;28;20189;-64
2020/12/12 10:19:51;;;;;;;1.73;0.20;;;7.10;99.90;;;;;;5048551;28;20193;-64
2020/12/12 10:22:16;;;;;;;1.70;0.20;;;7.10;99.90;;;;;;5042543;28;20209;-63
2020/12/12 10:24:42;;;;;;;1.70;0.20;;;7.00;99.90;;;;;;5048557;28;20197;-63
2020/12/12 10:27:07;;;;;;;1.70;0.20;;;7.00;99.90;;;;;;5049884;28;20724;-64
2020/12/12 10:29:33;;;;;;;1.70;0.20;;;7.00;99.90;;;;;;5049895;28;20193;-64
2020/12/12 10:32:00;;;;;;;1.70;0.20;;;6.90;99.90;;;;;;5048183;28;20331;-65
2020/12/12 10:34:25;;;;;;;1.70;0.20;;;7.00;99.90;;;;;;5049041;28;20460;-64
2020/12/12 10:36:51;;;;;;;1.73;0.20;;;7.00;99.90;;;;;;5052053;28;20434;-63
2020/12/12 10:39:25;;;;;;;1.80;0.50;;;6.90;99.90;;;;;;5048429;28;20686;-65
2020/12/12 10:41:51;;;;;;;1.70;0.20;;;6.90;99.90;;;;;;5050522;28;20208;-63
2020/12/12 10:44:16;;;;;;;1.70;0.20;;;6.90;99.90;;;;;;5054403;28;20456;-63
2020/12/12 10:46:41;;;;;;;1.70;0.20;;;7.00;99.90;;;;;;5060652;28;20200;-63
2020/12/12 10:49:07;;;;;;;1.70;0.20;;;7.00;99.90;;;;;;5060056;28;20332;-64
2020/12/12 10:51:32;;;;;;;1.70;0.20;;;7.00;99.90;;;;;;5056101;28;20553;-64
2020/12/12 10:53:58;;;;;;;1.70;0.20;;;7.00;99.90;;;;;;5051264;28;20244;-65
2020/12/12 10:56:23;;;;;;;1.80;0.30;;;7.10;99.90;;;;;;5050906;28;20617;-64
2020/12/12 10:58:49;;;;;;;1.70;0.20;;;7.10;99.90;;;;;;5043966;28;20740;-64
2020/12/12 11:01:14;;;;;;;1.70;0.20;;;7.00;99.90;;;;;;5048527;28;20192;-64
2020/12/12 11:03:42;;;;;;;1.70;0.20;;;7.00;99.90;;;;;;5046812;28;20614;-65
2020/12/12 11:06:10;;;;;;;1.70;0.20;;;7.00;99.90;;;;;;5050552;28;20564;-68
2020/12/12 11:08:36;;;;;;;1.70;0.20;;;7.00;99.90;;;;;;5047156;28;20448;-62
2020/12/12 11:11:01;;;;;;;1.70;0.20;;;7.00;99.90;;;;;;5044756;28;20434;-64
2020/12/12 11:13:27;;;;;;;1.73;0.20;;;7.00;99.90;;;;;;5044393;28;20264;-64
2020/12/12 11:15:53;;;;;;;1.70;0.20;;;7.00;99.90;;;;;;5049848;28;20945;-64
2020/12/12 11:18:18;;;;;;;1.70;0.20;;;7.00;99.90;;;;;;5045836;28;20444;-65
2020/12/12 11:20:46;;;;;;;2.00;0.90;;;7.00;99.90;;;;;;5043084;28;20182;-64
2020/12/12 11:23:12;;;;;;;1.70;0.30;;;7.00;99.90;;;;;;5049075;28;20224;-65
2020/12/12 11:25:37;;;;;;;1.70;0.20;;;7.00;99.90;;;;;;5046899;28;20453;-64
2020/12/12 11:28:03;;;;;;;1.70;0.20;;;7.00;99.90;;;;;;5048898;28;20197;-65
2020/12/12 11:30:29;;;;;;;1.90;0.60;;;7.00;99.90;;;;;;5043658;28;20186;-64
2020/12/12 11:32:54;;;;;;;1.70;0.20;;;7.00;99.90;;;;;;5040634;28;20640;-64
2020/12/12 11:35:35;;;;;;;1.70;0.20;;;7.00;99.90;;;;;;5048526;28;20474;-65
2020/12/12 11:40:45;;;;;;;1.70;0.20;;;7.00;99.90;;;;;;5045815;28;20582;-64
2020/12/12 11:48:23;;;;;;;1.73;0.20;;;7.00;99.90;;;;;;5042558;28;20457;-64
2020/12/12 11:50:48;;;;;;;1.70;0.20;;;7.00;99.90;;;;;;5040727;28;20443;-65
2020/12/12 11:53:14;;;;;;;1.70;0.20;;;7.10;99.90;;;;;;5047947;28;20219;-63
2020/12/12 11:55:39;;;;;;;1.70;0.20;;;7.10;99.90;;;;;;5045064;28;20339;-65
2020/12/12 11:58:05;;;;;;;1.70;0.20;;;7.10;99.90;;;;;;5049693;28;20543;-65
2020/12/12 12:00:30;;;;;;;1.70;0.20;;;7.10;99.90;;;;;;5043280;28;20193;-65
2020/12/12 12:02:56;;;;;;;1.70;0.20;;;7.10;99.90;;;;;;5046565;28;20282;-63
2020/12/12 12:05:21;;;;;;;1.70;0.20;;;7.10;99.90;;;;;;5045506;28;20181;-63
2020/12/12 12:07:49;;;;;;;1.70;0.20;;;7.20;99.90;;;;;;5039805;28;20613;-65
2020/12/12 12:10:27;;;;;;;1.73;0.20;;;7.20;99.90;;;;;;5037417;28;20197;-63
2020/12/12 12:12:53;;;;;;;1.70;0.20;;;7.20;99.90;;;;;;5039047;28;20452;-64
2020/12/12 12:15:18;;;;;;;1.73;0.20;;;7.20;99.90;;;;;;5040139;28;20519;-63
2020/12/12 12:17:44;;;;;;;1.70;0.20;;;7.20;99.90;;;;;;5045394;28;20553;-64
2020/12/12 12:20:09;;;;;;;2.53;2.10;;;7.30;99.90;;;;;;5043395;28;20268;-64
2020/12/12 12:22:35;;;;;;;1.70;0.20;;;7.20;99.90;;;;;;5048960;28;20197;-64
2020/12/12 12:25:00;;;;;;;1.70;0.20;;;7.20;99.90;;;;;;5042588;28;20181;-63
2020/12/12 12:27:26;;;;;;;1.70;0.20;;;7.20;99.90;;;;;;5049714;28;20196;-66
2020/12/12 12:29:51;;;;;;;1.70;0.20;;;7.20;99.90;;;;;;5048578;28;20260;-65
2020/12/12 12:32:17;;;;;;;1.70;0.20;;;7.20;99.90;;;;;;5048823;28;20240;-65
2020/12/12 12:34:43;;;;;;;1.70;0.20;;;7.30;99.90;;;;;;5044810;28;20205;-67
2020/12/12 12:37:08;;;;;;;1.70;0.20;;;7.30;99.90;;;;;;5045715;28;20216;-65
2020/12/12 12:39:34;;;;;;;1.70;0.20;;;7.30;99.90;;;;;;5053835;28;20925;-65
2020/12/12 12:42:03;;;;;;;1.80;0.20;;;7.20;99.90;;;;;;5044279;28;20224;-64
2020/12/12 12:44:29;;;;;;;1.70;0.20;;;7.20;99.90;;;;;;5034322;28;20181;-64
2020/12/12 12:46:55;;;;;;;1.90;0.87;;;7.20;99.90;;;;;;5039719;28;21160;-65
2020/12/12 12:49:20;;;;;;;1.73;0.20;;;7.20;99.90;;;;;;5040175;28;20192;-65
2020/12/12 12:51:46;;;;;;;1.70;0.20;;;7.20;99.90;;;;;;5042703;28;20819;-63
2020/12/12 12:54:11;;;;;;;1.70;0.20;;;7.10;99.90;;;;;;5042169;28;20193;-64
2020/12/12 12:56:38;;;;;;;1.73;0.20;;;7.10;99.90;;;;;;5042784;28;20185;-65
2020/12/12 12:59:03;;;;;;;12.60;10.40;;;7.10;99.90;;;;;;5047226;28;20189;-66
2020/12/12 13:01:29;;;;;;;1.70;0.20;;;7.10;99.90;;;;;;5047325;28;20458;-64
2020/12/12 13:03:54;;;;;;;1.70;0.20;;;7.20;99.90;;;;;;5041251;28;20235;-65
2020/12/12 13:06:21;;;;;;;1.70;0.20;;;7.20;99.90;;;;;;5041521;28;20181;-65
2020/12/12 13:08:47;;;;;;;1.70;0.20;;;7.30;99.90;;;;;;5051051;28;20185;-65